Terminal Aerodrome Forecast
Issued by NWS

Home | Current Version | Previous Version | Text Only | Print | Product List | Glossary On
Versions: 1 2 3 4 5 6 7 8 9 10 11 12 13 14 15 16 17 18 19
268
FTUS43 KICT 301135
TAFHUT
TAF
KHUT 301135Z 3012/3112 10004KT P6SM VCSH SCT050 BKN100
      TEMPO 3012/3015 5SM TSRA BKN050CB
     FM301500 14007KT P6SM BKN080
     FM301800 14009KT P6SM BKN040=

USA.gov is the U.S. government's official web portal to all federal, state and local government web resources and services.